createdAt,value
2022-11-16T00:01:57.263Z,3.40
2022-11-16T00:04:26.864Z,2.00
2022-11-16T00:06:55.118Z,2.20
2022-11-16T00:09:23.365Z,2.43
2022-11-16T00:11:52.139Z,5.30
2022-11-16T00:14:20.512Z,2.57
2022-11-16T00:16:48.674Z,3.50
2022-11-16T00:19:17.069Z,2.70
2022-11-16T00:21:46.625Z,3.63
2022-11-16T00:24:14.900Z,4.00
2022-11-16T00:26:43.456Z,4.60
2022-11-16T00:29:15.298Z,3.60
2022-11-16T00:31:43.503Z,2.80
2022-11-16T00:34:11.686Z,2.33
2022-11-16T00:36:39.867Z,2.07
2022-11-16T00:39:09.400Z,3.33
2022-11-16T00:41:37.558Z,3.10
2022-11-16T00:44:05.786Z,2.83
2022-11-16T00:46:34.106Z,2.00
2022-11-16T00:49:02.246Z,4.10
2022-11-16T00:51:30.420Z,1.90
2022-11-16T00:53:58.546Z,3.37
2022-11-16T00:56:28.085Z,1.50
2022-11-16T00:58:56.251Z,1.70
2022-11-16T01:01:24.488Z,2.03
2022-11-16T01:03:52.769Z,2.00
2022-11-16T01:06:23.299Z,1.50
2022-11-16T01:08:51.574Z,2.20
2022-11-16T01:11:37.654Z,2.37
2022-11-16T01:14:09.433Z,2.07
2022-11-16T01:16:37.608Z,1.50
2022-11-16T01:19:06.467Z,2.27
2022-11-16T01:21:35.212Z,1.50
2022-11-16T01:24:03.585Z,1.40
2022-11-16T01:26:31.859Z,2.03
2022-11-16T01:29:00.369Z,1.60
2022-11-16T01:31:29.854Z,1.70
2022-11-16T01:33:57.998Z,1.00
2022-11-16T01:36:26.313Z,2.00
2022-11-16T01:38:54.461Z,1.07
2022-11-16T01:41:23.902Z,1.00
2022-11-16T01:43:57.719Z,1.63
2022-11-16T01:46:26.463Z,1.63
2022-11-16T01:49:00.477Z,3.33
2022-11-16T01:51:29.120Z,0.90
2022-11-16T01:53:57.700Z,1.30
2022-11-16T01:56:26.582Z,1.43
2022-11-16T01:58:55.152Z,2.30
2022-11-16T02:01:23.369Z,1.47
2022-11-16T02:03:51.604Z,1.20
2022-11-16T02:06:34.630Z,1.53
2022-11-16T02:09:30.006Z,0.80
2022-11-16T02:12:03.953Z,1.43
2022-11-16T02:14:39.498Z,1.33
2022-11-16T02:17:15.790Z,2.83
2022-11-16T02:19:56.205Z,0.93
2022-11-16T02:22:31.163Z,1.30
2022-11-16T02:25:04.691Z,0.93
2022-11-16T02:27:48.490Z,1.13
2022-11-16T02:30:20.114Z,1.27
2022-11-16T02:32:51.725Z,2.33
2022-11-16T02:35:21.381Z,0.83
2022-11-16T02:37:52.146Z,1.43
2022-11-16T02:40:21.935Z,1.60
2022-11-16T02:42:52.382Z,4.17
2022-11-16T02:45:23.390Z,1.33
2022-11-16T02:47:52.399Z,1.97
2022-11-16T02:50:21.477Z,2.80
2022-11-16T02:52:49.682Z,1.33
2022-11-16T02:55:18.116Z,1.23
2022-11-16T02:57:50.253Z,1.13
2022-11-16T03:00:26.373Z,1.60
2022-11-16T03:03:05.186Z,2.20
2022-11-16T03:05:35.467Z,1.23
2022-11-16T03:08:09.285Z,1.97
2022-11-16T03:10:56.501Z,1.03
2022-11-16T03:13:27.135Z,1.87
2022-11-16T03:15:57.844Z,0.97
2022-11-16T03:18:27.640Z,1.00
2022-11-16T03:20:58.793Z,1.17
2022-11-16T03:23:26.997Z,1.00
2022-11-16T03:25:58.702Z,0.90
2022-11-16T03:28:30.717Z,2.60
2022-11-16T03:31:02.356Z,2.17
2022-11-16T03:33:32.147Z,2.07
2022-11-16T03:36:04.256Z,0.70
2022-11-16T03:38:33.978Z,2.40
2022-11-16T03:41:04.045Z,1.60
2022-11-16T03:43:32.679Z,1.07
2022-11-16T03:46:02.549Z,2.07
2022-11-16T03:48:34.440Z,0.80
2022-11-16T03:51:02.976Z,0.87
2022-11-16T03:53:31.145Z,2.47
2022-11-16T03:55:59.315Z,1.63
2022-11-16T03:58:27.460Z,3.57
2022-11-16T04:00:55.754Z,2.30
2022-11-16T04:03:25.337Z,3.00
2022-11-16T04:06:11.427Z,1.73
2022-11-16T04:08:57.431Z,3.93
2022-11-16T04:11:45.361Z,4.90
2022-11-16T04:14:32.716Z,2.73
2022-11-16T04:17:18.798Z,3.00
2022-11-16T04:20:06.001Z,5.37
2022-11-16T04:22:52.742Z,5.13
2022-11-16T04:25:23.254Z,2.37
2022-11-16T04:28:09.299Z,5.03
2022-11-16T04:30:51.610Z,3.47
2022-11-16T04:33:37.259Z,4.37
2022-11-16T04:36:24.721Z,3.97
2022-11-16T04:38:52.883Z,2.20
2022-11-16T04:41:38.716Z,3.60
2022-11-16T04:44:06.921Z,5.13
2022-11-16T04:46:52.739Z,2.43
2022-11-16T04:49:20.884Z,2.53
2022-11-16T04:51:50.554Z,2.33
2022-11-16T04:54:18.686Z,6.03
2022-11-16T04:56:46.843Z,5.07
2022-11-16T04:59:15.186Z,4.80
2022-11-16T05:02:00.811Z,7.83
2022-11-16T05:04:28.945Z,4.47
2022-11-16T05:06:58.529Z,6.23
2022-11-16T05:09:26.714Z,6.73
2022-11-16T05:11:54.958Z,12.47
2022-11-16T05:14:23.128Z,7.27
2022-11-16T05:16:51.278Z,4.57
2022-11-16T05:19:37.025Z,3.90
2022-11-16T05:22:06.497Z,5.13
2022-11-16T05:24:34.656Z,6.10
2022-11-16T05:27:03.213Z,6.60
2022-11-16T05:29:31.469Z,4.50
2022-11-16T05:31:59.707Z,8.53
2022-11-16T05:34:28.346Z,9.67
2022-11-16T05:36:56.652Z,4.57
2022-11-16T05:39:26.453Z,7.60
2022-11-16T05:41:55.152Z,4.10
2022-11-16T05:44:23.300Z,9.00
2022-11-16T05:46:51.742Z,7.20
2022-11-16T05:49:20.183Z,7.47
2022-11-16T05:51:48.706Z,5.80
2022-11-16T05:54:18.642Z,7.87
2022-11-16T05:56:48.184Z,8.27
2022-11-16T05:59:16.807Z,7.10
2022-11-16T06:01:45.103Z,6.30
2022-11-16T06:04:13.523Z,7.97
2022-11-16T06:06:41.733Z,4.90
2022-11-16T06:09:10.305Z,10.37
2022-11-16T06:11:38.582Z,8.47
2022-11-16T06:14:08.102Z,4.90
2022-11-16T06:16:36.299Z,6.10
2022-11-16T06:19:04.476Z,8.57
2022-11-16T06:21:32.959Z,6.57
2022-11-16T06:24:02.538Z,5.70
2022-11-16T06:26:30.730Z,3.90
2022-11-16T06:28:58.864Z,5.00
2022-11-16T06:31:28.444Z,6.13
2022-11-16T06:33:56.586Z,6.60
2022-11-16T06:36:24.749Z,6.30
2022-11-16T06:38:52.943Z,5.83
2022-11-16T06:41:21.095Z,5.23
2022-11-16T06:43:49.269Z,5.63
2022-11-16T06:46:17.424Z,9.80
2022-11-16T06:48:46.987Z,6.37
2022-11-16T06:51:15.190Z,8.03
2022-11-16T06:53:43.447Z,5.50
2022-11-16T06:56:13.958Z,6.73
2022-11-16T06:58:43.040Z,10.97
2022-11-16T07:01:12.351Z,9.77
2022-11-16T07:03:40.621Z,5.23
2022-11-16T07:06:11.037Z,5.03
2022-11-16T07:08:39.616Z,9.73
2022-11-16T07:11:08.549Z,6.70
2022-11-16T07:13:37.363Z,8.50
2022-11-16T07:16:06.055Z,5.97
2022-11-16T07:18:35.094Z,5.67
2022-11-16T07:21:07.282Z,10.80
2022-11-16T07:23:36.897Z,6.20
2022-11-16T07:26:05.351Z,6.20
2022-11-16T07:28:34.179Z,7.57
2022-11-16T07:31:03.136Z,11.13
2022-11-16T07:33:31.612Z,15.30
2022-11-16T07:36:02.874Z,9.23
2022-11-16T07:38:31.416Z,10.17
2022-11-16T07:41:02.858Z,13.23
2022-11-16T07:43:31.616Z,4.40
2022-11-16T07:46:30.470Z,9.03
2022-11-16T07:48:51.534Z,9.20
2022-11-16T07:51:19.974Z,9.07
2022-11-16T07:53:48.274Z,8.10
2022-11-16T07:56:17.821Z,6.67
2022-11-16T07:58:46.462Z,6.53
2022-11-16T08:01:16.825Z,8.00
2022-11-16T08:03:46.122Z,11.43
2022-11-16T08:06:15.635Z,8.97
2022-11-16T08:08:43.798Z,6.53
2022-11-16T08:11:12.642Z,8.07
2022-11-16T08:13:42.776Z,8.20
2022-11-16T08:16:12.883Z,7.07
2022-11-16T08:18:41.650Z,8.27
2022-11-16T08:21:10.573Z,4.73
2022-11-16T08:23:40.171Z,4.90
2022-11-16T08:26:09.325Z,7.90
2022-11-16T08:28:37.849Z,10.00
2022-11-16T08:31:10.832Z,6.80
2022-11-16T08:33:39.016Z,8.23
2022-11-16T08:36:13.630Z,7.60
2022-11-16T08:38:42.294Z,4.07
2022-11-16T08:41:10.580Z,6.20
2022-11-16T08:43:40.391Z,7.63
2022-11-16T08:46:10.032Z,8.23
2022-11-16T08:48:38.385Z,4.27
2022-11-16T08:51:17.511Z,4.10
2022-11-16T08:53:48.091Z,7.10
2022-11-16T08:56:16.891Z,9.80
2022-11-16T08:58:46.980Z,7.70
2022-11-16T09:01:18.291Z,6.27
2022-11-16T09:03:47.078Z,8.33
2022-11-16T09:06:15.998Z,5.77
2022-11-16T09:08:44.872Z,7.07
2022-11-16T09:11:13.989Z,7.33
2022-11-16T09:13:42.143Z,8.60
2022-11-16T09:16:10.391Z,7.37
2022-11-16T09:18:39.889Z,3.53
2022-11-16T09:21:08.159Z,6.37
2022-11-16T09:23:36.565Z,8.07
2022-11-16T09:26:05.414Z,6.00
2022-11-16T09:28:33.895Z,5.47
2022-11-16T09:31:03.933Z,7.97
2022-11-16T09:33:33.044Z,4.23
2022-11-16T09:36:07.525Z,9.40
2022-11-16T09:39:03.302Z,5.23
2022-11-16T09:41:38.393Z,5.03
2022-11-16T09:44:11.547Z,5.63
2022-11-16T09:46:41.503Z,4.53
2022-11-16T09:49:17.177Z,3.87
2022-11-16T09:51:49.758Z,5.77
2022-11-16T09:54:19.898Z,2.17
2022-11-16T09:56:49.434Z,5.13
2022-11-16T09:59:22.768Z,6.43
2022-11-16T10:01:53.157Z,8.07
2022-11-16T10:04:24.335Z,4.47
2022-11-16T10:06:55.331Z,4.90
2022-11-16T10:09:24.166Z,6.70
2022-11-16T10:12:06.458Z,5.77
2022-11-16T10:14:52.548Z,3.10
2022-11-16T10:17:27.077Z,7.17
2022-11-16T10:19:56.259Z,4.57
2022-11-16T10:22:34.854Z,3.37
2022-11-16T10:25:07.139Z,6.17
2022-11-16T10:27:47.921Z,4.77
2022-11-16T10:30:17.471Z,3.40
2022-11-16T10:32:48.622Z,4.37
2022-11-16T10:35:18.250Z,4.67
2022-11-16T10:37:49.292Z,6.33
2022-11-16T10:40:19.431Z,5.77
2022-11-16T10:42:51.876Z,2.63
2022-11-16T10:45:23.402Z,9.57
2022-11-16T10:47:53.204Z,4.57
2022-11-16T10:50:36.231Z,5.07
2022-11-16T10:53:05.723Z,4.67
2022-11-16T10:55:34.140Z,7.93
2022-11-16T10:58:03.306Z,6.50
2022-11-16T11:00:35.719Z,5.83
2022-11-16T11:03:03.968Z,6.67
2022-11-16T11:05:32.327Z,7.40
2022-11-16T11:08:04.302Z,3.37
2022-11-16T11:10:34.419Z,3.80
2022-11-16T11:13:04.015Z,6.47
2022-11-16T11:15:32.239Z,3.97
2022-11-16T11:18:13.654Z,1.80
2022-11-16T11:20:45.121Z,6.60
2022-11-16T11:23:15.679Z,6.03
2022-11-16T11:25:51.138Z,5.63
2022-11-16T11:28:21.649Z,5.87
2022-11-16T11:30:54.048Z,3.60
2022-11-16T11:33:23.677Z,3.63
2022-11-16T11:35:59.129Z,4.53
2022-11-16T11:38:27.341Z,3.53
2022-11-16T11:41:00.909Z,6.30
2022-11-16T11:43:29.569Z,3.23
2022-11-16T11:46:00.518Z,4.67
2022-11-16T11:48:34.144Z,6.73
2022-11-16T11:51:04.747Z,3.53
2022-11-16T11:53:43.901Z,7.97
2022-11-16T11:56:14.073Z,5.80
2022-11-16T11:58:42.575Z,3.67
2022-11-16T12:01:31.667Z,3.73
2022-11-16T12:04:12.190Z,7.73
2022-11-16T12:06:44.495Z,3.67
2022-11-16T12:09:19.192Z,3.63
2022-11-16T12:11:55.077Z,2.67
2022-11-16T12:14:38.930Z,5.87
2022-11-16T12:17:10.152Z,4.00
2022-11-16T12:19:58.099Z,4.90
2022-11-16T12:22:36.813Z,4.13
2022-11-16T12:25:11.447Z,4.67
2022-11-16T12:27:43.874Z,3.73
2022-11-16T12:30:14.777Z,2.30
2022-11-16T12:32:51.942Z,7.60
2022-11-16T12:35:27.716Z,5.50
2022-11-16T12:37:59.707Z,6.30
2022-11-16T12:40:35.927Z,5.30
2022-11-16T12:43:11.348Z,4.87
2022-11-16T12:45:45.818Z,4.13
2022-11-16T12:48:22.151Z,4.17
2022-11-16T12:50:55.089Z,2.73
2022-11-16T12:53:32.308Z,10.53
2022-11-16T12:56:04.423Z,5.13
2022-11-16T12:58:48.686Z,5.63
2022-11-16T13:01:19.765Z,5.83
2022-11-16T13:03:50.787Z,4.43
2022-11-16T13:06:20.684Z,6.70
2022-11-16T13:08:52.505Z,2.97
2022-11-16T13:11:24.751Z,5.93
2022-11-16T13:13:57.686Z,6.23
2022-11-16T13:16:26.375Z,3.80
2022-11-16T13:18:55.616Z,1.87
2022-11-16T13:21:28.594Z,4.47
2022-11-16T13:24:08.449Z,5.90
2022-11-16T13:26:40.549Z,3.93
2022-11-16T13:29:16.616Z,4.50
2022-11-16T13:31:48.656Z,4.23
2022-11-16T13:34:19.742Z,2.10
2022-11-16T13:36:48.171Z,4.27
2022-11-16T13:39:21.855Z,4.10
2022-11-16T13:41:51.475Z,1.90
2022-11-16T13:44:30.076Z,3.97
2022-11-16T13:47:04.088Z,7.00
2022-11-16T13:49:34.100Z,1.60
2022-11-16T13:52:22.087Z,3.13
2022-11-16T13:54:53.494Z,5.20
2022-11-16T13:57:24.487Z,7.37
2022-11-16T13:59:55.936Z,2.43
2022-11-16T14:02:31.785Z,3.13
2022-11-16T14:05:01.381Z,4.87
2022-11-16T14:07:42.747Z,3.37
2022-11-16T14:10:11.950Z,3.70
2022-11-16T14:12:58.190Z,3.23
2022-11-16T14:15:32.206Z,2.83
2022-11-16T14:18:02.622Z,2.90
2022-11-16T14:20:39.406Z,2.23
2022-11-16T14:23:12.686Z,3.10
2022-11-16T14:25:43.554Z,2.77
2022-11-16T14:28:24.477Z,3.53
2022-11-16T14:30:57.948Z,1.43
2022-11-16T14:33:30.002Z,2.13
2022-11-16T14:35:58.403Z,2.70
2022-11-16T14:38:30.731Z,1.43
2022-11-16T14:41:00.271Z,2.00
2022-11-16T14:43:29.916Z,0.80
2022-11-16T14:46:00.914Z,2.47
2022-11-16T14:48:29.687Z,1.40
2022-11-16T14:51:06.516Z,1.90
2022-11-16T14:53:36.309Z,1.53
2022-11-16T14:56:08.878Z,1.43
2022-11-16T14:58:37.157Z,0.83
2022-11-16T15:01:07.684Z,2.07
2022-11-16T15:03:37.453Z,3.40
2022-11-16T15:06:06.247Z,2.83
2022-11-16T15:08:36.142Z,2.97
2022-11-16T15:11:04.489Z,3.00
2022-11-16T15:13:32.944Z,3.30
2022-11-16T15:16:16.779Z,1.93
2022-11-16T15:18:57.224Z,1.83
2022-11-16T15:21:25.690Z,2.53
2022-11-16T15:24:23.455Z,7.50
2022-11-16T15:26:42.229Z,3.77
2022-11-16T15:29:15.536Z,4.07
2022-11-16T15:31:45.235Z,4.90
2022-11-16T15:34:13.826Z,1.23
2022-11-16T15:36:42.569Z,2.47
2022-11-16T15:39:13.357Z,3.67
2022-11-16T15:41:41.640Z,1.47
2022-11-16T15:44:15.281Z,3.23
2022-11-16T15:46:46.914Z,1.07
2022-11-16T15:49:21.400Z,1.97
2022-11-16T15:51:49.551Z,2.03
2022-11-16T15:54:23.896Z,2.30
2022-11-16T15:56:53.042Z,2.70
2022-11-16T15:59:23.884Z,3.80
2022-11-16T16:01:53.386Z,2.93
2022-11-16T16:04:21.601Z,2.97
2022-11-16T16:06:50.734Z,2.87
2022-11-16T16:09:24.749Z,2.60
2022-11-16T16:11:53.124Z,4.10
2022-11-16T16:14:25.749Z,4.07
2022-11-16T16:16:56.365Z,6.70
2022-11-16T16:19:38.356Z,6.63
2022-11-16T16:22:07.955Z,5.47
2022-11-16T16:24:41.527Z,6.43
2022-11-16T16:27:13.725Z,5.10
2022-11-16T16:29:41.916Z,6.03
2022-11-16T16:32:14.439Z,4.97
2022-11-16T16:34:42.692Z,5.03
2022-11-16T16:37:12.724Z,4.50
2022-11-16T16:39:42.012Z,5.23
2022-11-16T16:42:11.154Z,8.60
2022-11-16T16:44:39.330Z,4.20
2022-11-16T16:47:07.619Z,4.63
2022-11-16T16:49:37.158Z,6.37
2022-11-16T16:52:06.062Z,3.63
2022-11-16T16:54:34.497Z,3.13
2022-11-16T16:57:02.877Z,3.07
2022-11-16T16:59:31.095Z,7.57
2022-11-16T17:01:59.783Z,3.17
2022-11-16T17:04:27.961Z,3.93
2022-11-16T17:06:57.529Z,6.43
2022-11-16T17:09:25.701Z,6.10
2022-11-16T17:11:53.875Z,4.97
2022-11-16T17:14:24.423Z,8.53
2022-11-16T17:16:52.880Z,7.83
2022-11-16T17:19:21.924Z,9.50
2022-11-16T17:21:50.100Z,5.93
2022-11-16T17:24:19.921Z,3.77
2022-11-16T17:26:48.768Z,5.37
2022-11-16T17:29:17.077Z,4.93
2022-11-16T17:31:45.260Z,5.07
2022-11-16T17:34:14.399Z,4.20
2022-11-16T17:36:42.764Z,3.73
2022-11-16T17:39:10.942Z,6.80
2022-11-16T17:41:40.487Z,8.60
2022-11-16T17:44:09.165Z,7.17
2022-11-16T17:46:37.332Z,5.57
2022-11-16T17:49:05.593Z,3.97
2022-11-16T17:51:33.761Z,8.23
2022-11-16T17:54:02.239Z,5.03
2022-11-16T17:56:30.495Z,9.00
2022-11-16T17:59:00.129Z,4.80
2022-11-16T18:01:28.913Z,5.10
2022-11-16T18:03:57.155Z,4.83
2022-11-16T18:06:26.349Z,3.57
2022-11-16T18:08:54.619Z,5.90
2022-11-16T18:11:23.764Z,3.10
2022-11-16T18:13:53.908Z,5.57
2022-11-16T18:16:24.851Z,5.83
2022-11-16T18:18:57.144Z,5.83
2022-11-16T18:21:25.973Z,6.80
2022-11-16T18:23:54.131Z,6.17
2022-11-16T18:26:23.914Z,3.83
2022-11-16T18:28:52.834Z,3.77
2022-11-16T18:31:21.672Z,10.13
2022-11-16T18:33:51.498Z,30.93
2022-11-16T18:36:20.191Z,22.47
2022-11-16T18:38:48.500Z,14.80
2022-11-16T18:41:19.535Z,6.33
2022-11-16T18:43:51.225Z,12.47
2022-11-16T18:46:19.782Z,8.97
2022-11-16T18:48:47.972Z,8.73
2022-11-16T18:51:17.983Z,6.03
2022-11-16T18:53:46.539Z,3.37
2022-11-16T18:56:14.814Z,6.53
2022-11-16T18:58:50.304Z,3.70
2022-11-16T19:01:19.925Z,4.93
2022-11-16T19:03:48.181Z,8.10
2022-11-16T19:06:18.113Z,6.23
2022-11-16T19:08:50.501Z,6.17
2022-11-16T19:11:23.723Z,3.17
2022-11-16T19:13:53.803Z,7.00
2022-11-16T19:16:21.951Z,6.17
2022-11-16T19:18:50.162Z,4.43
2022-11-16T19:21:20.224Z,5.87
2022-11-16T19:23:49.420Z,4.37
2022-11-16T19:26:18.356Z,2.73
2022-11-16T19:28:47.265Z,3.77
2022-11-16T19:31:16.538Z,5.23
2022-11-16T19:33:44.915Z,5.47
2022-11-16T19:36:14.208Z,4.63
2022-11-16T19:38:43.906Z,7.17
2022-11-16T19:41:12.592Z,10.27
2022-11-16T19:43:40.741Z,7.83
2022-11-16T19:46:09.918Z,9.70
2022-11-16T19:48:38.221Z,20.53
2022-11-16T19:51:07.374Z,13.73
2022-11-16T19:53:36.231Z,14.67
2022-11-16T19:56:06.808Z,13.33
2022-11-16T19:58:36.979Z,11.40
2022-11-16T20:01:05.861Z,9.80
2022-11-16T20:03:35.141Z,5.60
2022-11-16T20:06:07.374Z,15.17
2022-11-16T20:08:35.540Z,9.27
2022-11-16T20:11:03.718Z,8.50
2022-11-16T20:13:33.590Z,9.13
2022-11-16T20:16:02.708Z,6.00
2022-11-16T20:18:32.107Z,4.40
2022-11-16T20:21:02.044Z,8.10
2022-11-16T20:23:30.707Z,7.90
2022-11-16T20:25:58.875Z,10.50
2022-11-16T20:28:27.056Z,10.00
2022-11-16T20:30:56.590Z,12.63
2022-11-16T20:33:24.750Z,6.87
2022-11-16T20:35:52.901Z,5.87
2022-11-16T20:38:21.043Z,7.23
2022-11-16T20:40:49.220Z,6.67
2022-11-16T20:43:17.403Z,5.07
2022-11-16T20:45:45.569Z,7.33
2022-11-16T20:48:15.358Z,9.00
2022-11-16T20:50:45.418Z,6.87
2022-11-16T20:53:13.703Z,8.70
2022-11-16T20:55:41.859Z,6.13
2022-11-16T20:58:10.026Z,8.43
2022-11-16T21:00:38.179Z,4.87
2022-11-16T21:03:06.335Z,6.10
2022-11-16T21:05:35.888Z,8.23
2022-11-16T21:08:04.046Z,6.13
2022-11-16T21:10:35.355Z,5.53
2022-11-16T21:13:21.149Z,6.77
2022-11-16T21:15:55.458Z,4.80
2022-11-16T21:18:29.332Z,4.40
2022-11-16T21:21:00.887Z,4.20
2022-11-16T21:23:29.596Z,4.50
2022-11-16T21:25:57.887Z,7.60
2022-11-16T21:28:26.022Z,5.00
2022-11-16T21:30:57.718Z,6.17
2022-11-16T21:33:26.243Z,4.83
2022-11-16T21:35:55.008Z,4.20
2022-11-16T21:38:25.296Z,3.10
2022-11-16T21:40:53.511Z,3.20
2022-11-16T21:43:21.747Z,4.60
2022-11-16T21:45:51.019Z,3.17
2022-11-16T21:48:19.207Z,2.20
2022-11-16T21:50:47.440Z,2.23
2022-11-16T21:53:15.566Z,6.27
2022-11-16T21:55:50.525Z,2.37
2022-11-16T21:58:18.670Z,3.33
2022-11-16T22:00:46.822Z,1.43
2022-11-16T22:03:15.027Z,2.47
2022-11-16T22:06:00.654Z,2.57
2022-11-16T22:08:28.797Z,3.03
2022-11-16T22:10:58.317Z,4.27
2022-11-16T22:13:26.500Z,2.37
2022-11-16T22:15:54.656Z,2.60
2022-11-16T22:18:22.816Z,2.33
2022-11-16T22:20:50.974Z,2.90
2022-11-16T22:23:23.136Z,1.30
2022-11-16T22:25:51.902Z,4.10
2022-11-16T22:28:21.713Z,1.20
2022-11-16T22:30:52.014Z,3.57
2022-11-16T22:33:20.559Z,2.70
2022-11-16T22:35:48.825Z,3.57
2022-11-16T22:38:16.965Z,2.70
2022-11-16T22:40:49.835Z,2.67
2022-11-16T22:43:17.994Z,4.30
2022-11-16T22:45:47.514Z,1.90
2022-11-16T22:48:15.738Z,1.50
2022-11-16T22:50:44.104Z,3.40
2022-11-16T22:53:12.256Z,1.83
2022-11-16T22:55:40.540Z,4.23
2022-11-16T22:58:08.679Z,2.03
2022-11-16T23:00:41.792Z,2.17
2022-11-16T23:03:11.779Z,2.27
2022-11-16T23:05:39.951Z,2.80
2022-11-16T23:08:08.123Z,0.97
2022-11-16T23:10:57.164Z,1.33
2022-11-16T23:13:42.362Z,1.03
2022-11-16T23:16:10.684Z,1.43
2022-11-16T23:18:40.231Z,1.67
2022-11-16T23:21:25.307Z,2.07
2022-11-16T23:24:19.596Z,1.23
2022-11-16T23:27:05.425Z,1.17
2022-11-16T23:29:33.650Z,0.70
2022-11-16T23:32:01.806Z,0.77
2022-11-16T23:34:31.326Z,0.73
2022-11-16T23:37:03.178Z,1.63
2022-11-16T23:39:31.412Z,1.93
2022-11-16T23:42:17.238Z,0.50
2022-11-16T23:44:45.414Z,1.37
2022-11-16T23:47:13.589Z,0.90
2022-11-16T23:49:43.121Z,1.40
2022-11-16T23:52:12.074Z,0.87
2022-11-16T23:54:40.255Z,0.60
2022-11-16T23:57:08.425Z,1.03
2022-11-16T23:59:36.611Z,0.90
